• pl
  • eng

Awiacja
Click on the bold red name to decode a message. 09:01 22.08.2017

METAR EPBY 220700Z 28009KT 9999 -SHRA FEW004 BKN006 OVC007CB 13/13
Q1016 =

METAR EPGD 220700Z 26008KT 9999 FEW005 BKN008 15/13 Q1015 =

METAR EPKK 220700Z 27012KT 9999 SCT017 15/11 Q1020 =

METAR EPKT 220700Z 27009KT 9999 FEW007 BKN008 13/11 Q1020 =

METAR EPLB 220700Z 29008KT 9999 FEW013 BKN029 15/12 Q1017 =

METAR EPLL 220700Z 25014KT 9999 OVC008 13/12 Q1018 =

METAR EPMO 220700Z 27011KT 9999 SCT012 BKN017TCU BKN029 15/13 Q1016 =

METAR EPPO 220700Z 28010KT 9999 BKN008 14/12 Q1018 =

METAR EPRA 220700Z 29008KT 9999 SCT015 BKN023 15/12 Q1017=

METAR EPRZ 220700Z 27010KT 9999 FEW011 BKN024 14/11 Q1018 =

METAR EPSC 220700Z 26010KT 230V300 CAVOK 14/11 Q1018 =

METAR EPSY 220700Z 24006KT 210V270 9999 FEW010 BKN025 14/11 Q1015=

METAR EPWA 220700Z 29008KT 230V320 9999 BKN015 16/12 Q1016 BECMG
SCT015=

METAR EPWR 220700Z 30012KT 9999 FEW016 SCT025 15/11 Q1020 =

METAR EPZG 220700Z 25009KT 230V290 9999 FEW009 BKN044 14/12 Q1020 =
Awiacja.imgw.pl jest pogodowym serwisem informacyjnym
Instytutu Meteorologii i Gospodarki Wodnej Państwowego Instytutu Badawczego.
Copyright IMGW PIB 2009-2011© Wszelkie prawa zastrzeżone.